createdAt,value
2022-09-12T00:01:32.894Z,2.10
2022-09-12T00:04:02.022Z,2.23
2022-09-12T00:06:32.541Z,2.53
2022-09-12T00:09:02.212Z,2.50
2022-09-12T00:11:29.604Z,2.70
2022-09-12T00:13:59.090Z,1.97
2022-09-12T00:16:28.654Z,2.10
2022-09-12T00:18:55.612Z,3.13
2022-09-12T00:21:23.241Z,2.43
2022-09-12T00:23:51.488Z,1.97
2022-09-12T00:26:19.730Z,2.27
2022-09-12T00:28:48.147Z,1.70
2022-09-12T00:31:22.262Z,1.70
2022-09-12T00:33:49.236Z,1.80
2022-09-12T00:36:20.218Z,1.33
2022-09-12T00:38:48.933Z,1.57
2022-09-12T00:41:32.604Z,1.77
2022-09-12T00:44:10.395Z,1.60
2022-09-12T00:46:44.274Z,1.43
2022-09-12T00:49:17.310Z,1.33
2022-09-12T00:51:51.807Z,1.60
2022-09-12T00:54:25.517Z,1.50
2022-09-12T00:56:56.012Z,1.70
2022-09-12T00:59:44.973Z,1.40
2022-09-12T01:02:12.021Z,1.20
2022-09-12T01:04:41.421Z,1.50
2022-09-12T01:07:08.933Z,1.50
2022-09-12T01:09:38.024Z,1.30
2022-09-12T01:12:06.026Z,1.47
2022-09-12T01:14:33.112Z,1.40
2022-09-12T01:17:00.075Z,1.50
2022-09-12T01:20:04.617Z,1.40
2022-09-12T01:23:02.660Z,1.13
2022-09-12T01:25:52.112Z,1.33
2022-09-12T01:28:49.918Z,1.40
2022-09-12T01:31:39.505Z,1.10
2022-09-12T01:34:28.283Z,0.97
2022-09-12T01:37:01.018Z,1.03
2022-09-12T01:39:38.844Z,0.90
2022-09-12T01:42:15.342Z,0.90
2022-09-12T01:45:02.879Z,0.90
2022-09-12T01:47:42.674Z,0.90
2022-09-12T01:50:17.379Z,1.00
2022-09-12T01:52:51.360Z,1.10
2022-09-12T01:55:24.153Z,1.20
2022-09-12T01:57:58.365Z,1.10
2022-09-12T02:00:26.061Z,1.20
2022-09-12T02:03:04.578Z,1.07
2022-09-12T02:05:35.661Z,1.50
2022-09-12T02:08:20.660Z,1.60
2022-09-12T02:10:54.145Z,1.43
2022-09-12T02:13:43.480Z,1.63
2022-09-12T02:16:50.614Z,1.60
2022-09-12T02:19:30.044Z,1.87
2022-09-12T02:22:00.281Z,1.80
2022-09-12T02:24:33.388Z,1.47
2022-09-12T02:27:06.190Z,1.60
2022-09-12T02:29:33.110Z,1.77
2022-09-12T02:32:06.066Z,1.70
2022-09-12T02:34:59.760Z,1.80
2022-09-12T02:37:40.106Z,1.80
2022-09-12T02:40:08.816Z,1.50
2022-09-12T02:42:38.615Z,1.80
2022-09-12T02:45:06.471Z,1.70
2022-09-12T02:47:39.310Z,1.67
2022-09-12T02:50:08.163Z,2.07
2022-09-12T02:52:36.205Z,2.40
2022-09-12T02:55:06.029Z,2.30
2022-09-12T02:57:33.449Z,2.50
2022-09-12T03:00:01.976Z,2.40
2022-09-12T03:03:06.340Z,2.67
2022-09-12T03:05:38.008Z,2.80
2022-09-12T03:08:10.627Z,2.90
2022-09-12T03:10:42.789Z,3.37
2022-09-12T03:17:00.046Z,5.83
2022-09-12T03:19:42.015Z,5.03
2022-09-12T03:22:17.876Z,3.67
2022-09-12T03:25:23.419Z,3.53
2022-09-12T03:28:07.499Z,3.30
2022-09-12T03:30:42.653Z,3.60
2022-09-12T03:33:14.025Z,2.80
2022-09-12T03:35:41.673Z,2.27
2022-09-12T03:38:08.784Z,2.37
2022-09-12T03:40:36.775Z,1.93
2022-09-12T03:43:05.329Z,1.83
2022-09-12T03:45:32.439Z,1.87
2022-09-12T03:47:59.479Z,1.63
2022-09-12T03:50:26.686Z,1.63
2022-09-12T03:52:53.898Z,1.50
2022-09-12T03:55:20.759Z,1.43
2022-09-12T03:57:47.686Z,1.53
2022-09-12T04:00:19.500Z,1.40
2022-09-12T04:02:46.834Z,1.40
2022-09-12T04:05:14.473Z,1.37
2022-09-12T04:07:41.872Z,1.20
2022-09-12T04:10:09.756Z,2.00
2022-09-12T04:12:39.564Z,1.57
2022-09-12T04:15:07.787Z,1.40
2022-09-12T04:17:35.180Z,1.50
2022-09-12T04:20:02.417Z,1.67
2022-09-12T04:22:31.974Z,1.53
2022-09-12T04:24:58.839Z,1.70
2022-09-12T04:27:25.808Z,1.63
2022-09-12T04:29:54.844Z,1.60
2022-09-12T04:32:22.418Z,1.70
2022-09-12T04:34:52.422Z,1.90
2022-09-12T04:37:19.441Z,1.40
2022-09-12T04:39:49.203Z,1.90
2022-09-12T04:42:16.617Z,2.00
2022-09-12T04:44:45.097Z,1.47
2022-09-12T04:47:11.995Z,1.80
2022-09-12T04:49:38.907Z,1.87
2022-09-12T04:52:06.102Z,1.50
2022-09-12T04:54:33.665Z,1.33
2022-09-12T04:57:01.052Z,1.50
2022-09-12T04:59:28.024Z,1.60
2022-09-12T05:01:55.244Z,1.10
2022-09-12T05:04:22.206Z,1.10
2022-09-12T05:06:51.950Z,1.30
2022-09-12T05:09:19.016Z,1.57
2022-09-12T05:14:33.875Z,1.40
2022-09-12T05:17:01.805Z,1.67
2022-09-12T05:19:30.496Z,1.50
2022-09-12T05:21:58.173Z,1.80
2022-09-12T05:24:25.178Z,1.63
2022-09-12T05:26:52.392Z,1.57
2022-09-12T05:29:19.970Z,1.60
2022-09-12T05:31:52.333Z,1.20
2022-09-12T05:34:20.746Z,1.73
2022-09-12T05:36:47.650Z,1.20
2022-09-12T05:39:15.037Z,1.33
2022-09-12T05:41:42.271Z,1.83
2022-09-12T05:44:12.535Z,1.30
2022-09-12T05:46:45.580Z,1.50
2022-09-12T05:49:14.636Z,3.07
2022-09-12T05:51:45.125Z,0.90
2022-09-12T05:54:15.363Z,1.33
2022-09-12T05:56:44.242Z,0.90
2022-09-12T05:59:14.554Z,0.90
2022-09-12T06:01:42.274Z,0.73
2022-09-12T06:04:14.665Z,1.00
2022-09-12T06:06:46.933Z,0.87
2022-09-12T06:09:15.770Z,0.90
2022-09-12T06:11:43.923Z,0.90
2022-09-12T06:14:13.447Z,2.17
2022-09-12T06:16:40.891Z,0.90
2022-09-12T06:19:16.352Z,0.90
2022-09-12T06:21:44.215Z,1.07
2022-09-12T06:24:11.498Z,0.87
2022-09-12T06:26:38.752Z,1.20
2022-09-12T06:29:05.867Z,1.00
2022-09-12T06:31:35.898Z,1.00
2022-09-12T06:34:06.027Z,0.90
2022-09-12T06:36:37.654Z,1.10
2022-09-12T06:39:16.565Z,0.77
2022-09-12T06:41:45.696Z,0.80
2022-09-12T06:44:16.173Z,1.00
2022-09-12T06:46:44.325Z,1.00
2022-09-12T06:49:12.544Z,2.10
2022-09-12T06:51:41.885Z,0.90
2022-09-12T06:54:12.168Z,0.73
2022-09-12T06:56:39.199Z,0.90
2022-09-12T06:59:09.005Z,0.90
2022-09-12T07:01:36.472Z,1.13
2022-09-12T07:04:04.738Z,1.13
2022-09-12T07:06:38.015Z,0.97
2022-09-12T07:09:07.469Z,0.97
2022-09-12T07:11:37.179Z,0.80
2022-09-12T07:14:06.181Z,0.80
2022-09-12T07:16:36.118Z,1.20
2022-09-12T07:19:05.397Z,0.67
2022-09-12T07:21:32.760Z,0.77
2022-09-12T07:23:59.720Z,0.80
2022-09-12T07:26:29.221Z,0.63
2022-09-12T07:29:18.757Z,0.80
2022-09-12T07:31:45.664Z,1.20
2022-09-12T07:34:15.018Z,0.80
2022-09-12T07:36:42.038Z,0.73
2022-09-12T07:39:09.711Z,0.80
2022-09-12T07:41:39.718Z,0.80
2022-09-12T07:44:07.466Z,1.17
2022-09-12T07:46:35.541Z,0.80
2022-09-12T07:49:02.593Z,0.73
2022-09-12T07:51:30.777Z,0.70
2022-09-12T07:53:59.670Z,0.70
2022-09-12T07:56:30.659Z,0.60
2022-09-12T07:58:58.958Z,0.70
2022-09-12T08:01:27.256Z,0.80
2022-09-12T08:03:59.736Z,1.10
2022-09-12T08:06:32.254Z,0.80
2022-09-12T08:08:59.841Z,1.10
2022-09-12T08:11:28.353Z,0.77
2022-09-12T08:13:58.155Z,0.70
2022-09-12T08:16:28.663Z,1.10
2022-09-12T08:18:56.127Z,0.70
2022-09-12T08:21:42.702Z,0.70
2022-09-12T08:24:12.722Z,0.60
2022-09-12T08:26:39.624Z,0.90
2022-09-12T08:29:06.576Z,0.60
2022-09-12T08:31:37.739Z,1.20
2022-09-12T08:34:08.136Z,1.00
2022-09-12T08:36:37.014Z,0.93
2022-09-12T08:39:08.234Z,0.70
2022-09-12T08:41:43.192Z,0.60
2022-09-12T08:44:25.799Z,0.60
2022-09-12T08:47:04.696Z,1.00
2022-09-12T08:50:03.644Z,0.97
2022-09-12T08:52:50.546Z,1.00
2022-09-12T08:55:22.152Z,1.10
2022-09-12T08:57:49.047Z,0.70
2022-09-12T09:00:17.321Z,1.00
2022-09-12T09:02:51.140Z,0.60
2022-09-12T09:05:33.649Z,1.17
2022-09-12T09:08:22.816Z,0.70
2022-09-12T09:11:24.571Z,0.80
2022-09-12T09:14:20.623Z,0.90
2022-09-12T09:16:53.174Z,0.73
2022-09-12T09:19:37.958Z,0.60
2022-09-12T09:22:13.266Z,0.60
2022-09-12T09:24:48.338Z,0.80
2022-09-12T09:27:40.793Z,0.70
2022-09-12T09:30:19.302Z,0.60
2022-09-12T09:32:49.261Z,0.83
2022-09-12T09:35:21.614Z,0.73
2022-09-12T09:38:16.909Z,0.80
2022-09-12T09:41:00.599Z,0.70
2022-09-12T09:43:29.601Z,0.70
2022-09-12T09:46:00.197Z,0.80
2022-09-12T09:48:34.251Z,1.10
2022-09-12T09:51:05.166Z,1.10
2022-09-12T09:53:52.180Z,1.00
2022-09-12T09:56:27.584Z,0.87
2022-09-12T09:58:54.554Z,1.00
2022-09-12T10:01:22.296Z,1.00
2022-09-12T10:03:55.206Z,0.90
2022-09-12T10:06:35.973Z,0.90
2022-09-12T10:09:15.131Z,1.10
2022-09-12T10:11:45.927Z,1.10
2022-09-12T10:14:45.217Z,0.70
2022-09-12T10:17:34.169Z,0.80
2022-09-12T10:20:21.380Z,1.00
2022-09-12T10:22:49.773Z,0.97
2022-09-12T10:25:19.250Z,0.97
2022-09-12T10:27:55.965Z,0.90
2022-09-12T10:30:28.418Z,1.00
2022-09-12T10:33:08.359Z,1.00
2022-09-12T10:35:48.950Z,0.97
2022-09-12T10:38:25.961Z,0.73
2022-09-12T10:41:14.404Z,0.80
2022-09-12T10:43:42.360Z,1.10
2022-09-12T10:46:18.431Z,0.80
2022-09-12T10:48:50.593Z,0.90
2022-09-12T10:51:26.310Z,0.80
2022-09-12T10:54:00.370Z,0.93
2022-09-12T10:56:52.069Z,1.00
2022-09-12T10:59:59.099Z,1.03
2022-09-12T11:03:01.446Z,0.80
2022-09-12T11:05:52.797Z,1.00
2022-09-12T11:08:53.542Z,1.00
2022-09-12T11:11:40.255Z,0.97
2022-09-12T11:14:29.156Z,1.17
2022-09-12T11:17:13.728Z,0.97
2022-09-12T11:20:04.562Z,0.93
2022-09-12T11:23:06.036Z,0.90
2022-09-12T11:26:05.386Z,1.20
2022-09-12T11:28:50.205Z,1.17
2022-09-12T11:31:39.250Z,1.10
2022-09-12T11:34:11.822Z,1.50
2022-09-12T11:36:47.796Z,1.20
2022-09-12T11:39:24.007Z,1.00
2022-09-12T11:42:00.306Z,1.20
2022-09-12T11:44:40.253Z,1.27
2022-09-12T11:47:14.545Z,1.30
2022-09-12T11:49:53.574Z,1.33
2022-09-12T11:52:23.889Z,1.30
2022-09-12T11:55:03.893Z,1.30
2022-09-12T11:57:39.347Z,1.10
2022-09-12T12:00:10.869Z,1.13
2022-09-12T12:03:04.841Z,1.30
2022-09-12T12:05:42.958Z,1.30
2022-09-12T12:08:12.246Z,1.20
2022-09-12T12:10:43.236Z,1.03
2022-09-12T12:13:22.228Z,1.20
2022-09-12T12:16:03.531Z,1.20
2022-09-12T12:18:33.104Z,1.20
2022-09-12T12:21:37.541Z,1.40
2022-09-12T12:24:04.969Z,1.33
2022-09-12T12:26:45.396Z,1.30
2022-09-12T12:29:12.728Z,1.37
2022-09-12T12:32:05.901Z,1.50
2022-09-12T12:37:42.673Z,1.73
2022-09-12T12:40:29.352Z,1.40
2022-09-12T12:42:56.151Z,1.50
2022-09-12T12:45:29.174Z,1.57
2022-09-12T12:48:10.333Z,1.63
2022-09-12T12:50:37.623Z,2.03
2022-09-12T12:53:28.579Z,1.37
2022-09-12T12:55:58.698Z,1.80
2022-09-12T12:58:46.064Z,1.80
2022-09-12T13:01:16.945Z,2.00
2022-09-12T13:03:53.219Z,2.13
2022-09-12T13:06:34.557Z,2.07
2022-09-12T13:09:27.058Z,1.97
2022-09-12T13:12:25.511Z,2.40
2022-09-12T13:15:03.950Z,2.20
2022-09-12T13:17:36.976Z,2.00
2022-09-12T13:20:28.401Z,2.50
2022-09-12T13:23:00.474Z,2.20
2022-09-12T13:25:31.978Z,2.20
2022-09-12T13:28:17.243Z,1.90
2022-09-12T13:31:07.627Z,2.13
2022-09-12T13:34:00.025Z,2.20
2022-09-12T13:40:30.862Z,2.50
2022-09-12T13:46:00.401Z,2.30
2022-09-12T13:48:30.504Z,2.40
2022-09-12T13:51:02.192Z,2.40
2022-09-12T14:10:35.063Z,2.77
2022-09-12T14:13:26.578Z,2.87
2022-09-12T14:15:58.098Z,2.43
2022-09-12T14:18:28.349Z,2.97
2022-09-12T14:20:57.528Z,3.13
2022-09-12T14:23:30.859Z,2.50
2022-09-12T14:26:06.686Z,3.23
2022-09-12T14:28:35.354Z,3.33
2022-09-12T14:31:06.807Z,2.97
2022-09-12T14:33:57.060Z,3.60
2022-09-12T14:36:30.470Z,3.37
2022-09-12T14:39:04.578Z,3.90
2022-09-12T14:41:40.892Z,3.90
2022-09-12T14:44:17.356Z,3.30
2022-09-12T14:46:44.905Z,3.50
2022-09-12T14:49:25.938Z,4.23
2022-09-12T14:52:01.690Z,3.80
2022-09-12T14:54:28.575Z,3.30
2022-09-12T14:57:05.036Z,4.00
2022-09-12T14:59:40.375Z,3.60
2022-09-12T15:02:20.721Z,3.90
2022-09-12T15:05:15.566Z,3.60
2022-09-12T15:07:53.881Z,3.67
2022-09-12T15:10:31.479Z,3.80
2022-09-12T15:13:19.917Z,3.40
2022-09-12T15:15:52.418Z,4.03
2022-09-12T15:18:20.666Z,3.90
2022-09-12T15:20:50.492Z,4.73
2022-09-12T15:23:38.280Z,3.77
2022-09-12T15:26:06.439Z,4.50
2022-09-12T15:28:37.730Z,5.40
2022-09-12T15:31:30.671Z,3.77
2022-09-12T15:34:00.211Z,4.03
2022-09-12T15:36:29.041Z,3.60
2022-09-12T15:38:56.905Z,4.33
2022-09-12T15:41:34.767Z,4.07
2022-09-12T15:44:04.634Z,4.20
2022-09-12T15:46:31.617Z,3.87
2022-09-12T15:48:58.537Z,3.47
2022-09-12T15:51:25.711Z,3.50
2022-09-12T15:53:52.801Z,4.07
2022-09-12T15:56:22.213Z,4.33
2022-09-12T15:59:05.207Z,4.13
2022-09-12T16:01:32.466Z,5.10
2022-09-12T16:03:59.430Z,4.17
2022-09-12T16:06:27.272Z,3.87
2022-09-12T16:08:54.168Z,5.30
2022-09-12T16:11:26.578Z,4.43
2022-09-12T16:13:54.304Z,4.37
2022-09-12T16:16:21.341Z,4.90
2022-09-12T16:18:48.728Z,4.70
2022-09-12T16:21:16.055Z,4.13
2022-09-12T16:23:44.594Z,4.87
2022-09-12T16:26:11.535Z,4.50
2022-09-12T16:28:43.789Z,4.77
2022-09-12T16:31:16.809Z,5.23
2022-09-12T16:33:43.689Z,5.00
2022-09-12T16:36:13.814Z,4.50
2022-09-12T16:38:42.219Z,4.30
2022-09-12T16:41:09.364Z,4.17
2022-09-12T16:43:37.852Z,4.07
2022-09-12T16:46:07.991Z,4.30
2022-09-12T16:48:35.519Z,4.37
2022-09-12T16:51:07.362Z,4.43
2022-09-12T16:53:37.108Z,4.00
2022-09-12T16:56:05.899Z,3.93
2022-09-12T16:58:41.976Z,4.10
2022-09-12T17:01:14.415Z,4.57
2022-09-12T17:03:42.384Z,4.70
2022-09-12T17:06:12.120Z,4.60
2022-09-12T17:08:40.996Z,4.33
2022-09-12T17:11:22.056Z,3.80
2022-09-12T17:14:04.445Z,4.50
2022-09-12T17:16:38.243Z,4.67
2022-09-12T17:19:06.606Z,3.90
2022-09-12T17:21:35.863Z,4.10
2022-09-12T17:24:03.618Z,3.73
2022-09-12T17:26:32.087Z,4.10
2022-09-12T17:28:58.961Z,3.83
2022-09-12T17:31:26.664Z,4.90
2022-09-12T17:34:01.035Z,3.80
2022-09-12T17:36:29.260Z,4.03
2022-09-12T17:38:56.139Z,3.83
2022-09-12T17:41:31.402Z,3.43
2022-09-12T17:47:34.059Z,4.30
2022-09-12T17:50:27.455Z,4.27
2022-09-12T17:52:50.630Z,4.00
2022-09-12T17:55:17.969Z,3.43
2022-09-12T17:57:45.384Z,3.67
2022-09-12T18:00:12.684Z,3.10
2022-09-12T18:02:40.096Z,3.57
2022-09-12T18:05:07.250Z,3.00
2022-09-12T18:07:35.685Z,3.27
2022-09-12T18:10:02.757Z,3.03
2022-09-12T18:12:30.449Z,3.33
2022-09-12T18:14:57.321Z,3.27
2022-09-12T18:17:24.437Z,3.00
2022-09-12T18:19:54.956Z,3.27
2022-09-12T18:22:21.959Z,3.30
2022-09-12T18:24:48.805Z,3.93
2022-09-12T18:27:15.677Z,3.37
2022-09-12T18:29:42.831Z,3.27
2022-09-12T18:32:09.702Z,3.40
2022-09-12T18:34:36.548Z,3.53
2022-09-12T18:37:05.364Z,3.50
2022-09-12T18:39:32.301Z,3.47
2022-09-12T18:41:59.223Z,3.17
2022-09-12T18:44:26.369Z,3.30
2022-09-12T18:46:53.315Z,3.70
2022-09-12T18:49:49.578Z,3.37
2022-09-12T18:52:18.998Z,3.87
2022-09-12T18:54:46.009Z,3.77
2022-09-12T18:57:12.860Z,3.50
2022-09-12T18:59:39.769Z,3.20
2022-09-12T19:02:07.229Z,3.40
2022-09-12T19:04:34.426Z,3.27
2022-09-12T19:07:04.051Z,3.20
2022-09-12T19:09:33.792Z,2.93
2022-09-12T19:12:00.798Z,2.90
2022-09-12T19:14:28.599Z,3.00
2022-09-12T19:17:04.013Z,3.03
2022-09-12T19:23:13.108Z,2.67
2022-09-12T19:25:42.585Z,2.40
2022-09-12T19:28:11.244Z,2.43
2022-09-12T19:30:47.031Z,2.40
2022-09-12T19:33:14.269Z,2.77
2022-09-12T19:35:41.388Z,2.67
2022-09-12T19:38:08.752Z,2.23
2022-09-12T19:40:40.501Z,2.33
2022-09-12T19:43:09.083Z,2.60
2022-09-12T19:45:37.806Z,2.73
2022-09-12T19:48:04.865Z,2.50
2022-09-12T19:50:34.622Z,2.80
2022-09-12T19:53:07.100Z,2.77
2022-09-12T19:55:38.602Z,2.50
2022-09-12T19:58:06.206Z,2.63
2022-09-12T20:00:34.712Z,2.60
2022-09-12T20:03:04.373Z,2.90
2022-09-12T20:05:39.536Z,2.43
2022-09-12T20:08:10.064Z,2.57
2022-09-12T20:10:38.581Z,3.30
2022-09-12T20:13:06.085Z,2.93
2022-09-12T20:15:50.483Z,3.50
2022-09-12T20:18:17.686Z,3.57
2022-09-12T20:20:44.764Z,3.23
2022-09-12T20:23:12.347Z,2.80
2022-09-12T20:25:39.356Z,2.70
2022-09-12T20:28:08.792Z,2.83
2022-09-12T20:30:35.888Z,3.10
2022-09-12T20:33:03.769Z,3.20
2022-09-12T20:35:32.335Z,3.67
2022-09-12T20:38:00.065Z,3.20
2022-09-12T20:40:27.094Z,2.77
2022-09-12T20:42:54.008Z,2.60
2022-09-12T20:45:20.855Z,2.50
2022-09-12T20:47:47.847Z,2.50
2022-09-12T20:50:15.264Z,3.10
2022-09-12T20:52:42.158Z,2.70
2022-09-12T20:55:09.902Z,2.47
2022-09-12T20:57:37.129Z,2.40
2022-09-12T21:00:06.684Z,2.57
2022-09-12T21:02:33.766Z,2.40
2022-09-12T21:05:00.671Z,2.40
2022-09-12T21:07:27.552Z,2.43
2022-09-12T21:09:54.609Z,2.00
2022-09-12T21:12:21.550Z,2.40
2022-09-12T21:14:48.654Z,2.20
2022-09-12T21:17:15.494Z,2.17
2022-09-12T21:19:42.583Z,2.20
2022-09-12T21:22:09.669Z,2.20
2022-09-12T21:24:37.814Z,2.20
2022-09-12T21:27:05.159Z,3.50
2022-09-12T21:29:32.139Z,3.17
2022-09-12T21:31:58.986Z,2.47
2022-09-12T21:34:25.915Z,2.77
2022-09-12T21:36:52.925Z,2.40
2022-09-12T21:39:21.823Z,2.80
2022-09-12T21:41:49.955Z,2.50
2022-09-12T21:44:16.965Z,3.30
2022-09-12T21:46:43.968Z,3.07
2022-09-12T21:49:10.867Z,2.90
2022-09-12T21:51:37.777Z,2.70
2022-09-12T21:54:04.717Z,2.53
2022-09-12T21:56:31.549Z,2.67
2022-09-12T21:58:58.766Z,2.47
2022-09-12T22:01:25.728Z,2.23
2022-09-12T22:03:53.214Z,2.30
2022-09-12T22:06:22.543Z,2.30
2022-09-12T22:08:51.934Z,2.67
2022-09-12T22:11:20.373Z,2.13
2022-09-12T22:13:47.320Z,2.50
2022-09-12T22:16:14.405Z,2.50
2022-09-12T22:18:41.670Z,2.37
2022-09-12T22:21:15.099Z,2.23
2022-09-12T22:24:01.105Z,2.40
2022-09-12T22:26:29.240Z,2.30
2022-09-12T22:28:56.252Z,2.27
2022-09-12T22:31:23.636Z,2.27
2022-09-12T22:33:51.503Z,2.20
2022-09-12T22:36:18.426Z,2.37
2022-09-12T22:38:45.954Z,2.23
2022-09-12T22:41:13.292Z,2.23
2022-09-12T22:43:40.312Z,2.50
2022-09-12T22:46:12.587Z,2.20
2022-09-12T22:48:40.657Z,2.37
2022-09-12T22:51:07.704Z,2.50
2022-09-12T22:53:35.612Z,2.20
2022-09-12T22:56:03.950Z,2.20
2022-09-12T22:58:31.844Z,2.33
2022-09-12T23:00:58.731Z,2.03
2022-09-12T23:03:26.932Z,2.40
2022-09-12T23:05:53.807Z,2.50
2022-09-12T23:08:20.770Z,2.30
2022-09-12T23:10:47.638Z,2.10
2022-09-12T23:13:15.036Z,2.33
2022-09-12T23:15:42.363Z,2.30
2022-09-12T23:18:09.229Z,2.07
2022-09-12T23:20:36.108Z,2.40
2022-09-12T23:23:03.266Z,2.07
2022-09-12T23:25:30.967Z,2.30
2022-09-12T23:27:57.871Z,2.20
2022-09-12T23:30:24.774Z,2.47
2022-09-12T23:32:51.629Z,2.43
2022-09-12T23:35:19.756Z,2.23
2022-09-12T23:37:47.634Z,2.30
2022-09-12T23:40:14.711Z,1.93
2022-09-12T23:42:41.673Z,2.23
2022-09-12T23:45:08.988Z,2.47
2022-09-12T23:47:35.879Z,2.27
2022-09-12T23:50:02.761Z,2.23
2022-09-12T23:52:29.877Z,2.10
2022-09-12T23:54:56.748Z,2.13
2022-09-12T23:57:23.694Z,1.90
2022-09-12T23:59:50.556Z,2.87
